Time;durP1;ratioP1;P1;durP2;ratioP2;P2;SDS_P1;SDS_P2;PMS_P1;PMS_P2;Temp;Humidity;BMP_temperature;BMP_pressure;BME280_temperature;BME280_humidity;BME280_pressure;Samples;Min_cycle;Max_cycle;Signal;HPM_P1;HPM_P2
2021/11/18 00:00:49;;;;;;;23.05;14.75;;;5.90;99.90;;;;;;2096150;28;20064;-69
2021/11/18 00:01:52;;;;;;;21.95;14.43;;;5.90;99.90;;;;;;2104525;28;20418;-69
2021/11/18 00:02:53;;;;;;;24.05;15.25;;;5.90;99.90;;;;;;2106540;28;20077;-70
2021/11/18 00:03:54;;;;;;;23.42;14.90;;;5.90;99.90;;;;;;2106676;28;20035;-71
2021/11/18 00:04:55;;;;;;;22.13;14.90;;;6.00;99.90;;;;;;2106435;28;20019;-70
2021/11/18 00:05:56;;;;;;;23.15;14.77;;;6.00;99.90;;;;;;2105442;28;20024;-70
2021/11/18 00:06:57;;;;;;;22.25;14.35;;;6.00;99.90;;;;;;2105953;28;20751;-70
2021/11/18 00:07:58;;;;;;;20.83;14.05;;;6.10;99.90;;;;;;2106525;28;20028;-70
2021/11/18 00:08:58;;;;;;;22.92;14.52;;;6.10;99.90;;;;;;2105746;28;20119;-70
2021/11/18 00:09:59;;;;;;;23.38;14.65;;;6.10;99.90;;;;;;2105921;28;20036;-70
2021/11/18 00:11:04;;;;;;;21.70;14.30;;;6.10;99.90;;;;;;2106534;28;20028;-70
2021/11/18 00:12:31;;;;;;;22.70;14.30;;;6.20;99.90;;;;;;2106695;28;20717;-70
2021/11/18 00:13:40;;;;;;;22.42;14.38;;;6.10;99.90;;;;;;2106340;28;20106;-69
2021/11/18 00:14:43;;;;;;;23.15;14.90;;;6.20;99.90;;;;;;2106791;28;20028;-70
2021/11/18 00:15:44;;;;;;;23.55;14.18;;;6.20;99.90;;;;;;2106276;28;20024;-69
2021/11/18 00:16:45;;;;;;;21.45;13.98;;;6.20;99.90;;;;;;2106912;28;20064;-71
2021/11/18 00:17:45;;;;;;;21.90;14.05;;;6.30;99.90;;;;;;2106874;28;20024;-70
2021/11/18 00:18:46;;;;;;;20.08;13.48;;;6.30;99.90;;;;;;2106980;28;20037;-70
2021/11/18 00:19:46;;;;;;;20.08;12.88;;;6.30;99.90;;;;;;2106967;28;20028;-71
2021/11/18 00:20:49;;;;;;;19.95;12.77;;;6.30;99.90;;;;;;2106888;28;20044;-69
2021/11/18 00:21:50;;;;;;;18.45;12.50;;;6.30;99.90;;;;;;2106455;28;20028;-71
2021/11/18 00:22:50;;;;;;;18.02;12.57;;;6.30;99.90;;;;;;2106401;28;20445;-70
2021/11/18 00:23:54;;;;;;;22.42;14.25;;;6.30;99.90;;;;;;2106621;28;20028;-71
2021/11/18 00:24:55;;;;;;;22.35;13.98;;;6.30;99.90;;;;;;2105878;28;20024;-70
2021/11/18 00:25:56;;;;;;;21.23;13.35;;;6.30;99.90;;;;;;2105317;28;20368;-72
2021/11/18 00:26:57;;;;;;;21.38;13.82;;;6.30;99.90;;;;;;2106396;28;20073;-69
2021/11/18 00:27:59;;;;;;;23.98;14.52;;;6.30;99.90;;;;;;2105981;28;20028;-69
2021/11/18 00:29:00;;;;;;;23.38;14.50;;;6.30;99.90;;;;;;2105784;28;20032;-70
2021/11/18 00:30:01;;;;;;;22.25;13.95;;;6.30;99.90;;;;;;2106353;28;20031;-70
2021/11/18 00:31:03;;;;;;;19.73;13.20;;;6.30;99.90;;;;;;2106437;28;20051;-70
2021/11/18 00:32:04;;;;;;;21.42;13.50;;;6.30;99.90;;;;;;2106222;28;20491;-70
2021/11/18 00:33:06;;;;;;;19.85;13.02;;;6.30;99.90;;;;;;2105726;28;20020;-70
2021/11/18 00:34:07;;;;;;;21.73;14.25;;;6.20;99.90;;;;;;2105402;28;20028;-70
2021/11/18 00:35:10;;;;;;;21.13;14.15;;;6.20;99.90;;;;;;2106353;28;20034;-70
2021/11/18 00:36:11;;;;;;;21.42;14.20;;;6.20;99.90;;;;;;2105928;28;20146;-71
2021/11/18 00:37:12;;;;;;;24.00;14.68;;;6.20;99.90;;;;;;2106282;28;20095;-70
2021/11/18 00:38:13;;;;;;;23.25;14.23;;;6.20;99.90;;;;;;2106124;28;20024;-70
2021/11/18 00:39:14;;;;;;;23.33;14.90;;;6.20;99.90;;;;;;2105536;28;20028;-71
2021/11/18 00:40:19;;;;;;;27.85;14.77;;;6.20;99.90;;;;;;2105694;28;20047;-70
2021/11/18 00:41:24;;;;;;;24.90;15.30;;;6.30;99.90;;;;;;2105970;28;20112;-70
2021/11/18 00:42:24;;;;;;;25.52;15.30;;;6.30;99.90;;;;;;2106313;28;20364;-69
2021/11/18 00:43:25;;;;;;;23.88;14.73;;;6.30;99.90;;;;;;2105589;28;20168;-70
2021/11/18 00:44:26;;;;;;;26.33;15.77;;;6.30;99.90;;;;;;2105517;28;20036;-70
2021/11/18 00:45:29;;;;;;;23.98;15.40;;;6.30;99.90;;;;;;2097384;28;20559;-71
2021/11/18 00:46:32;;;;;;;24.27;15.10;;;6.30;99.90;;;;;;2096623;28;20040;-70
2021/11/18 00:47:33;;;;;;;23.73;14.80;;;6.20;99.90;;;;;;2105361;28;20043;-69
2021/11/18 00:48:35;;;;;;;22.58;14.75;;;6.30;99.90;;;;;;2105459;28;20028;-70
2021/11/18 00:49:36;;;;;;;22.83;14.63;;;6.30;99.90;;;;;;2097082;28;20036;-70
2021/11/18 00:50:41;;;;;;;22.63;14.43;;;6.30;99.90;;;;;;2105563;28;20499;-70
2021/11/18 00:51:43;;;;;;;23.13;14.70;;;6.30;99.90;;;;;;2105240;28;20020;-69
2021/11/18 00:52:44;;;;;;;21.83;14.73;;;6.30;99.90;;;;;;2105568;28;20024;-69
2021/11/18 00:53:50;;;;;;;22.15;13.88;;;6.30;99.90;;;;;;2105648;28;20062;-69
2021/11/18 00:54:52;;;;;;;23.40;14.40;;;6.40;99.90;;;;;;2097280;28;20021;-70
2021/11/18 00:55:52;;;;;;;21.08;14.43;;;6.40;99.90;;;;;;2096963;28;20482;-70
2021/11/18 00:56:53;;;;;;;21.08;14.15;;;6.40;99.90;;;;;;2105400;28;20016;-70
2021/11/18 00:57:54;;;;;;;22.83;14.15;;;6.40;99.90;;;;;;2105627;28;20419;-70
2021/11/18 00:58:57;;;;;;;20.85;14.38;;;6.40;99.90;;;;;;2097087;28;20031;-70
2021/11/18 00:59:57;;;;;;;23.48;14.10;;;6.50;99.90;;;;;;2097304;28;20024;-70
2021/11/18 01:00:58;;;;;;;22.92;13.88;;;6.50;99.90;;;;;;2105513;28;20585;-70
2021/11/18 01:02:03;;;;;;;21.60;14.32;;;6.50;99.90;;;;;;2105215;28;20959;-70
2021/11/18 01:03:04;;;;;;;21.08;13.57;;;6.50;99.90;;;;;;2097168;28;20028;-69
2021/11/18 01:04:04;;;;;;;20.83;14.18;;;6.50;99.90;;;;;;2097093;28;20032;-69
2021/11/18 01:05:06;;;;;;;21.73;13.70;;;6.50;99.90;;;;;;2105491;28;20170;-67
2021/11/18 01:06:07;;;;;;;19.55;13.18;;;6.50;99.90;;;;;;2096580;28;20032;-68
2021/11/18 01:07:09;;;;;;;21.88;13.60;;;6.50;99.90;;;;;;2097171;28;20059;-68
2021/11/18 01:08:10;;;;;;;20.17;13.48;;;6.50;99.90;;;;;;2097053;28;20068;-70
2021/11/18 01:09:11;;;;;;;21.08;13.68;;;6.50;99.90;;;;;;2105406;28;20066;-69
2021/11/18 01:10:13;;;;;;;19.13;12.88;;;6.50;99.90;;;;;;2105379;28;20090;-69
2021/11/18 01:11:21;;;;;;;22.73;14.02;;;6.50;99.90;;;;;;2104798;28;20032;-70
2021/11/18 01:12:22;;;;;;;19.98;13.35;;;6.50;99.90;;;;;;2105839;28;20051;-69
2021/11/18 01:13:25;;;;;;;18.88;12.70;;;6.60;99.90;;;;;;2105297;28;20089;-70
2021/11/18 01:14:26;;;;;;;18.58;12.52;;;6.60;99.90;;;;;;2105610;28;20517;-69
2021/11/18 01:15:31;;;;;;;18.48;12.13;;;6.60;99.90;;;;;;2105147;28;20085;-70
2021/11/18 01:16:34;;;;;;;17.73;12.07;;;6.60;99.90;;;;;;2096498;28;20048;-69
2021/11/18 01:17:35;;;;;;;17.95;12.57;;;6.60;99.90;;;;;;2097141;28;20484;-69
2021/11/18 01:18:37;;;;;;;21.33;13.27;;;6.60;99.90;;;;;;2096390;28;20077;-68
2021/11/18 01:19:38;;;;;;;16.70;12.15;;;6.60;99.90;;;;;;2096196;28;20556;-68
2021/11/18 01:20:40;;;;;;;19.42;13.25;;;6.60;99.90;;;;;;2097017;28;20111;-68
2021/11/18 01:21:45;;;;;;;20.02;13.40;;;6.60;99.90;;;;;;2096849;28;20086;-70
2021/11/18 01:22:47;;;;;;;19.98;12.98;;;6.60;99.90;;;;;;2089419;28;20037;-70
2021/11/18 01:23:49;;;;;;;19.70;13.20;;;6.60;99.90;;;;;;2097304;28;20021;-69
2021/11/18 01:24:54;;;;;;;19.60;12.85;;;6.60;99.90;;;;;;2105615;28;20284;-71
2021/11/18 01:25:58;;;;;;;18.20;12.25;;;6.60;99.90;;;;;;2096903;28;20438;-70
2021/11/18 01:26:59;;;;;;;20.13;13.55;;;6.70;99.90;;;;;;2105692;28;20028;-70
2021/11/18 01:28:05;;;;;;;19.65;12.73;;;6.60;99.90;;;;;;2105646;28;20039;-70
2021/11/18 01:29:07;;;;;;;18.13;12.30;;;6.60;99.90;;;;;;2098251;28;20153;-71
2021/11/18 01:30:13;;;;;;;19.98;12.93;;;6.60;99.90;;;;;;2106014;28;20139;-70
2021/11/18 01:31:15;;;;;;;21.13;13.27;;;6.60;99.90;;;;;;2105910;28;20104;-71
2021/11/18 01:32:16;;;;;;;20.35;12.32;;;6.60;99.90;;;;;;2105806;28;20028;-70
2021/11/18 01:33:26;;;;;;;19.40;13.10;;;6.60;99.90;;;;;;2105381;28;20062;-70
2021/11/18 01:34:28;;;;;;;19.73;12.98;;;6.60;99.90;;;;;;2097269;28;20559;-70
2021/11/18 01:35:31;;;;;;;20.83;12.88;;;6.60;99.90;;;;;;2096874;28;20099;-70
2021/11/18 01:36:31;;;;;;;20.42;12.75;;;6.60;99.90;;;;;;2096526;28;20032;-70
2021/11/18 01:37:39;;;;;;;18.70;12.45;;;6.60;99.90;;;;;;2082109;28;20108;-70
2021/11/18 01:38:43;;;;;;;17.33;11.20;;;6.60;99.90;;;;;;2090265;28;20054;-70
2021/11/18 01:39:58;;;;;;;20.98;12.75;;;6.60;99.90;;;;;;2098841;28;20028;-70
2021/11/18 01:41:05;;;;;;;20.13;12.95;;;6.60;99.90;;;;;;2105846;28;20027;-69
2021/11/18 01:42:11;;;;;;;18.48;12.43;;;6.60;99.90;;;;;;2105479;28;20039;-70
2021/11/18 01:43:12;;;;;;;19.88;13.10;;;6.50;99.90;;;;;;2097365;28;20176;-70
2021/11/18 01:44:25;;;;;;;20.70;12.98;;;6.50;99.90;;;;;;2103405;28;20028;-70
2021/11/18 01:45:31;;;;;;;19.80;12.10;;;6.50;99.90;;;;;;2090164;28;20439;-69
2021/11/18 01:46:35;;;;;;;17.15;11.48;;;6.40;99.90;;;;;;2088681;28;20056;-70
2021/11/18 01:47:44;;;;;;;18.90;12.45;;;6.40;99.90;;;;;;2089980;28;20518;-70
2021/11/18 01:48:51;;;;;;;19.98;12.30;;;6.30;99.90;;;;;;2089246;28;20040;-70
2021/11/18 01:49:53;;;;;;;17.25;11.80;;;6.30;99.90;;;;;;2096841;28;20131;-71
2021/11/18 01:50:54;;;;;;;18.52;12.05;;;6.20;99.90;;;;;;2088535;28;20155;-71
2021/11/18 01:51:58;;;;;;;19.35;12.00;;;6.20;99.90;;;;;;2096628;28;20020;-71
2021/11/18 01:53:01;;;;;;;21.20;12.50;;;6.20;99.90;;;;;;2096683;28;20058;-71
2021/11/18 01:54:10;;;;;;;21.23;12.90;;;6.10;99.90;;;;;;2089936;28;20036;-71
2021/11/18 01:55:12;;;;;;;21.50;13.00;;;6.10;99.90;;;;;;2097006;28;20099;-71
2021/11/18 01:56:23;;;;;;;20.30;13.18;;;6.10;99.90;;;;;;2096395;28;20028;-70
2021/11/18 01:57:29;;;;;;;20.52;12.95;;;6.10;99.90;;;;;;2089619;28;20029;-72
2021/11/18 01:58:50;;;;;;;21.42;13.02;;;6.00;99.90;;;;;;2090830;28;20020;-72
2021/11/18 02:00:12;;;;;;;19.88;12.00;;;6.00;99.90;;;;;;2091261;28;20063;-71
2021/11/18 02:01:25;;;;;;;17.73;11.63;;;6.00;99.90;;;;;;2081938;28;20037;-70
2021/11/18 02:02:28;;;;;;;23.33;13.32;;;5.90;99.90;;;;;;2081842;28;20026;-70
2021/11/18 02:03:48;;;;;;;20.27;12.25;;;5.90;99.90;;;;;;2091515;28;20032;-69
2021/11/18 02:05:13;;;;;;;22.42;13.85;;;5.90;99.90;;;;;;2096623;28;20083;-69
2021/11/18 02:06:31;;;;;;;22.13;13.55;;;5.90;99.90;;;;;;2090269;28;20032;-70
2021/11/18 02:07:33;;;;;;;18.92;12.35;;;5.90;99.90;;;;;;2090215;28;20032;-70
2021/11/18 02:08:35;;;;;;;20.67;13.38;;;5.90;99.90;;;;;;2096552;28;20027;-70
2021/11/18 02:09:51;;;;;;;22.98;13.55;;;5.90;99.90;;;;;;2088428;28;20021;-69
2021/11/18 02:11:01;;;;;;;20.90;12.90;;;5.90;99.90;;;;;;2090214;28;20155;-69
2021/11/18 02:12:12;;;;;;;20.85;13.13;;;5.80;99.90;;;;;;2089329;28;20564;-69
2021/11/18 02:13:16;;;;;;;19.95;12.52;;;5.90;99.90;;;;;;2096619;28;20090;-68
2021/11/18 02:14:21;;;;;;;19.92;12.57;;;5.90;99.90;;;;;;2088883;28;20082;-69
2021/11/18 02:15:34;;;;;;;22.50;13.52;;;5.80;99.90;;;;;;2088712;28;20025;-70
2021/11/18 02:16:35;;;;;;;22.45;13.27;;;5.80;99.90;;;;;;2096002;28;20056;-70
2021/11/18 02:17:36;;;;;;;23.77;14.13;;;5.80;99.90;;;;;;2080130;28;20059;-69
2021/11/18 02:18:37;;;;;;;21.67;14.00;;;5.80;99.90;;;;;;2079970;28;20080;-69
2021/11/18 02:19:53;;;;;;;22.90;13.55;;;5.80;99.90;;;;;;2088731;28;20021;-69
2021/11/18 02:20:57;;;;;;;19.58;13.00;;;5.80;99.90;;;;;;2096468;28;20029;-70
2021/11/18 02:21:58;;;;;;;21.48;12.75;;;5.80;99.90;;;;;;2088384;28;20578;-70
2021/11/18 02:23:00;;;;;;;19.80;12.55;;;5.70;99.90;;;;;;2088437;28;20066;-69
2021/11/18 02:24:05;;;;;;;18.42;11.93;;;5.70;99.90;;;;;;2096625;28;20025;-70
2021/11/18 02:25:13;;;;;;;19.92;12.60;;;5.70;99.90;;;;;;2096437;28;20067;-69
2021/11/18 02:26:16;;;;;;;22.30;12.50;;;5.60;99.90;;;;;;2088362;28;20037;-70
2021/11/18 02:27:21;;;;;;;20.73;12.35;;;5.60;99.90;;;;;;2088533;28;20028;-70
2021/11/18 02:28:26;;;;;;;18.40;12.23;;;5.60;99.90;;;;;;2096427;28;20071;-69
2021/11/18 02:29:28;;;;;;;19.38;12.68;;;5.60;99.90;;;;;;2096233;28;20567;-70
2021/11/18 02:30:35;;;;;;;19.80;12.48;;;5.60;99.90;;;;;;2087992;28;20037;-70
2021/11/18 02:31:40;;;;;;;24.75;14.38;;;5.60;99.90;;;;;;2088810;28;20083;-69
2021/11/18 02:32:43;;;;;;;23.45;14.20;;;5.60;99.90;;;;;;2088785;28;20036;-69
2021/11/18 02:33:44;;;;;;;23.40;14.25;;;5.60;99.90;;;;;;2088393;28;20032;-69
2021/11/18 02:35:14;;;;;;;21.73;13.70;;;5.60;99.90;;;;;;2088693;28;20025;-70
2021/11/18 02:36:15;;;;;;;21.20;13.07;;;5.70;99.90;;;;;;2095833;28;20028;-68
2021/11/18 02:37:16;;;;;;;23.60;14.27;;;5.70;99.90;;;;;;2088156;28;20021;-69
2021/11/18 02:38:42;;;;;;;21.33;13.20;;;5.80;99.90;;;;;;2096721;28;20029;-69
2021/11/18 02:39:49;;;;;;;21.83;14.05;;;5.80;99.90;;;;;;2096387;28;20056;-69
2021/11/18 02:40:51;;;;;;;22.58;13.75;;;5.80;99.90;;;;;;2088137;28;20056;-70
2021/11/18 02:41:52;;;;;;;24.08;14.63;;;5.80;99.90;;;;;;2087807;28;20519;-70
2021/11/18 02:42:55;;;;;;;22.58;14.18;;;5.90;99.90;;;;;;2088131;28;20037;-70
2021/11/18 02:43:56;;;;;;;22.75;13.60;;;5.90;99.90;;;;;;2088379;28;20575;-69
2021/11/18 02:44:57;;;;;;;21.83;13.70;;;5.90;99.90;;;;;;2088278;28;20119;-70
2021/11/18 02:45:58;;;;;;;21.40;13.32;;;5.90;99.90;;;;;;2096080;28;20048;-69
2021/11/18 02:47:00;;;;;;;21.73;12.82;;;5.90;99.90;;;;;;2096435;28;20055;-69
2021/11/18 02:48:02;;;;;;;20.95;13.95;;;5.80;99.90;;;;;;2088475;28;20032;-69
2021/11/18 02:49:04;;;;;;;23.00;13.27;;;5.90;99.90;;;;;;2088148;28;20029;-70
2021/11/18 02:50:08;;;;;;;22.02;13.30;;;5.80;99.90;;;;;;2088392;28;20556;-71
2021/11/18 02:51:15;;;;;;;22.27;13.23;;;5.90;99.90;;;;;;2080545;28;20030;-70
2021/11/18 02:52:25;;;;;;;20.27;13.15;;;5.80;99.90;;;;;;2072790;28;20105;-70
2021/11/18 02:53:26;;;;;;;24.23;13.65;;;5.90;99.90;;;;;;2089439;28;20389;-71
2021/11/18 02:54:27;;;;;;;22.48;13.65;;;5.90;99.90;;;;;;2096383;28;20446;-71
2021/11/18 02:55:32;;;;;;;19.95;12.80;;;5.90;99.90;;;;;;2096413;28;20032;-70
2021/11/18 02:56:33;;;;;;;17.67;11.85;;;5.90;99.90;;;;;;2088044;28;20041;-71
2021/11/18 02:57:34;;;;;;;21.33;13.13;;;6.00;99.90;;;;;;2088124;28;20125;-71
2021/11/18 02:58:35;;;;;;;22.48;13.75;;;6.00;99.90;;;;;;2087933;28;20021;-72
2021/11/18 02:59:38;;;;;;;21.80;12.75;;;6.00;99.90;;;;;;2088036;28;20124;-68
2021/11/18 03:00:50;;;;;;;20.20;12.70;;;6.00;99.90;;;;;;2088205;28;20025;-71
2021/11/18 03:01:52;;;;;;;21.38;12.70;;;6.10;99.90;;;;;;2096167;28;20025;-71
2021/11/18 03:02:53;;;;;;;22.08;12.68;;;6.10;99.90;;;;;;2088086;28;20823;-70
2021/11/18 03:03:56;;;;;;;20.63;12.80;;;6.10;99.90;;;;;;2088132;28;20033;-70
2021/11/18 03:04:57;;;;;;;22.52;12.63;;;6.10;99.90;;;;;;2088257;28;20112;-71
2021/11/18 03:05:58;;;;;;;23.27;13.30;;;6.20;99.90;;;;;;2087597;28;20512;-71
2021/11/18 03:07:00;;;;;;;19.63;13.02;;;6.20;99.90;;;;;;2096371;28;20052;-71
2021/11/18 03:08:02;;;;;;;24.23;13.02;;;6.20;99.90;;;;;;2088103;28;20032;-70
2021/11/18 03:09:04;;;;;;;20.30;12.48;;;6.30;99.90;;;;;;2079941;28;20112;-70
2021/11/18 03:10:08;;;;;;;19.02;12.63;;;6.30;99.90;;;;;;2088070;28;20508;-70
2021/11/18 03:11:10;;;;;;;18.77;12.23;;;6.30;99.90;;;;;;2096149;28;20050;-71
2021/11/18 03:12:10;;;;;;;18.58;12.40;;;6.30;99.90;;;;;;2096137;28;20039;-71
2021/11/18 03:13:14;;;;;;;19.73;11.75;;;6.30;99.90;;;;;;2096256;28;20070;-71
2021/11/18 03:14:15;;;;;;;17.45;11.45;;;6.40;99.90;;;;;;2088106;28;20021;-71
2021/11/18 03:15:21;;;;;;;18.33;11.63;;;6.40;99.90;;;;;;2088295;28;20021;-71
2021/11/18 03:16:23;;;;;;;17.10;11.45;;;6.40;99.90;;;;;;2087807;28;20057;-70
2021/11/18 03:17:23;;;;;;;16.17;10.93;;;6.40;99.90;;;;;;2087880;28;20018;-71
2021/11/18 03:18:44;;;;;;;18.48;11.38;;;6.40;99.90;;;;;;2090526;28;20044;-70
2021/11/18 03:19:48;;;;;;;17.67;10.80;;;6.40;99.90;;;;;;2088422;28;20033;-71
2021/11/18 03:20:49;;;;;;;17.20;11.45;;;6.40;99.90;;;;;;2087925;28;20051;-70
2021/11/18 03:21:52;;;;;;;19.75;12.77;;;6.40;99.90;;;;;;2087850;28;20029;-70
2021/11/18 03:22:53;;;;;;;20.63;12.98;;;6.40;99.90;;;;;;2096348;28;20539;-72
2021/11/18 03:23:55;;;;;;;20.48;13.27;;;6.50;99.90;;;;;;2096880;28;20024;-71
2021/11/18 03:24:56;;;;;;;18.08;12.23;;;6.50;99.90;;;;;;2096940;28;20016;-71
2021/11/18 03:25:57;;;;;;;20.65;13.23;;;6.50;99.90;;;;;;2095440;28;20078;-70
2021/11/18 03:26:59;;;;;;;17.95;11.68;;;6.50;99.90;;;;;;2096125;28;20040;-70
2021/11/18 03:28:01;;;;;;;20.40;12.98;;;6.50;99.90;;;;;;2087888;28;20536;-71
2021/11/18 03:29:04;;;;;;;20.20;13.00;;;6.60;99.90;;;;;;2087946;28;20049;-70
2021/11/18 03:30:09;;;;;;;18.83;12.75;;;6.60;99.90;;;;;;2088406;28;20451;-71
2021/11/18 03:31:12;;;;;;;20.48;12.57;;;6.70;99.90;;;;;;2088272;28;20123;-71
2021/11/18 03:32:13;;;;;;;17.75;12.13;;;6.70;99.90;;;;;;2088174;28;20108;-71
2021/11/18 03:33:19;;;;;;;18.85;12.27;;;6.70;99.90;;;;;;2088340;28;20067;-71
2021/11/18 03:34:25;;;;;;;21.13;12.60;;;6.60;99.90;;;;;;2088944;28;20466;-72
2021/11/18 03:35:27;;;;;;;22.45;13.98;;;6.60;99.90;;;;;;2088758;28;20029;-71
2021/11/18 03:36:30;;;;;;;18.75;12.63;;;6.60;99.90;;;;;;2087498;28;20036;-70
2021/11/18 03:37:33;;;;;;;19.27;12.50;;;6.60;99.90;;;;;;2089741;28;20693;-72
2021/11/18 03:38:34;;;;;;;20.25;12.90;;;6.60;99.90;;;;;;2089331;28;20027;-70
2021/11/18 03:39:43;;;;;;;19.40;12.50;;;6.60;99.90;;;;;;2090714;28;20137;-71
2021/11/18 03:40:50;;;;;;;21.17;13.02;;;6.60;99.90;;;;;;2097720;28;20044;-72
2021/11/18 03:41:56;;;;;;;22.52;13.65;;;6.50;99.90;;;;;;2090151;28;20033;-71
2021/11/18 03:42:59;;;;;;;20.83;13.23;;;6.50;99.90;;;;;;2090205;28;20564;-71
2021/11/18 03:44:05;;;;;;;19.95;13.20;;;6.60;99.90;;;;;;2090038;28;20124;-70
2021/11/18 03:45:08;;;;;;;21.13;12.80;;;6.50;99.90;;;;;;2097693;28;20031;-70
2021/11/18 03:46:10;;;;;;;19.00;12.13;;;6.50;99.90;;;;;;2089215;28;20048;-70
2021/11/18 03:47:13;;;;;;;20.95;12.38;;;6.50;99.90;;;;;;2097891;28;20476;-70
2021/11/18 03:48:19;;;;;;;20.90;12.73;;;6.50;99.90;;;;;;2090540;28;20106;-69
2021/11/18 03:49:45;;;;;;;17.63;12.02;;;6.50;99.90;;;;;;2098279;28;20041;-71
2021/11/18 03:50:49;;;;;;;19.90;12.65;;;6.50;99.90;;;;;;2097734;28;20058;-70
2021/11/18 03:51:55;;;;;;;21.15;12.18;;;6.50;99.90;;;;;;2097660;28;20023;-69
2021/11/18 03:52:57;;;;;;;19.13;13.15;;;6.50;99.90;;;;;;2097711;28;20059;-70
2021/11/18 03:54:00;;;;;;;18.70;12.07;;;6.50;99.90;;;;;;2089466;28;20035;-69
2021/11/18 03:55:01;;;;;;;19.85;12.57;;;6.50;99.90;;;;;;2097750;28;20021;-71
2021/11/18 03:56:23;;;;;;;20.83;12.68;;;6.50;99.90;;;;;;2089115;28;20381;-70
2021/11/18 03:57:23;;;;;;;21.70;12.35;;;6.50;99.90;;;;;;2092127;28;20037;-71
2021/11/18 03:58:34;;;;;;;21.92;13.20;;;6.60;99.90;;;;;;2097710;28;20098;-70
2021/11/18 03:59:39;;;;;;;24.55;12.85;;;6.60;99.90;;;;;;2089522;28;20036;-71
2021/11/18 04:00:48;;;;;;;20.90;12.50;;;6.60;99.90;;;;;;2091032;28;20389;-70
2021/11/18 04:01:52;;;;;;;20.05;12.73;;;6.60;99.90;;;;;;2089296;28;20506;-70
2021/11/18 04:02:58;;;;;;;20.25;12.18;;;6.60;99.90;;;;;;2097358;28;20110;-70
2021/11/18 04:04:10;;;;;;;18.92;11.60;;;6.60;99.90;;;;;;2090495;28;20025;-70
2021/11/18 04:05:14;;;;;;;18.10;11.27;;;6.60;99.90;;;;;;2090231;28;20544;-71
2021/11/18 04:06:17;;;;;;;18.50;11.82;;;6.70;99.90;;;;;;2096931;28;20028;-70
2021/11/18 04:07:35;;;;;;;19.45;12.15;;;6.70;99.90;;;;;;2090744;28;20025;-71
2021/11/18 04:08:37;;;;;;;19.17;11.98;;;6.70;99.90;;;;;;2090123;28;20043;-70
2021/11/18 04:09:38;;;;;;;19.35;11.93;;;6.70;99.90;;;;;;2089267;28;20061;-71
2021/11/18 04:10:41;;;;;;;18.45;12.10;;;6.70;99.90;;;;;;2088952;28;20459;-70
2021/11/18 04:11:44;;;;;;;18.55;12.40;;;6.70;99.90;;;;;;2097225;28;20042;-71
2021/11/18 04:12:45;;;;;;;19.92;11.77;;;6.70;99.90;;;;;;2098086;28;20028;-70
2021/11/18 04:13:46;;;;;;;17.95;11.68;;;6.70;99.90;;;;;;2097540;28;20025;-73
2021/11/18 04:14:47;;;;;;;21.95;12.68;;;6.70;99.90;;;;;;2089229;28;20568;-70
2021/11/18 04:15:51;;;;;;;19.15;11.90;;;6.70;99.90;;;;;;2088879;28;20017;-70
2021/11/18 04:16:57;;;;;;;19.40;12.30;;;6.70;99.90;;;;;;2090197;28;20024;-71
2021/11/18 04:17:59;;;;;;;20.95;11.88;;;6.70;99.90;;;;;;2097534;28;20020;-70
2021/11/18 04:19:06;;;;;;;19.73;11.38;;;6.70;99.90;;;;;;2090688;28;20527;-70
2021/11/18 04:20:10;;;;;;;20.13;11.25;;;6.70;99.90;;;;;;2090516;28;20040;-70
2021/11/18 04:21:12;;;;;;;17.08;10.98;;;6.70;99.90;;;;;;2098905;28;20054;-70
2021/11/18 04:22:13;;;;;;;19.13;11.43;;;6.70;99.90;;;;;;2081234;28;20033;-70
2021/11/18 04:23:15;;;;;;;19.48;11.45;;;6.80;99.90;;;;;;2080989;28;20475;-71
2021/11/18 04:24:20;;;;;;;17.77;11.55;;;6.70;99.90;;;;;;2089481;28;20028;-70
2021/11/18 04:25:28;;;;;;;16.50;10.52;;;6.70;99.90;;;;;;2089907;28;20056;-70
2021/11/18 04:26:29;;;;;;;17.52;10.85;;;6.80;99.90;;;;;;2089772;28;20106;-70
2021/11/18 04:27:30;;;;;;;19.23;11.90;;;6.70;99.90;;;;;;2097539;28;20593;-70
2021/11/18 04:28:33;;;;;;;17.50;11.05;;;6.70;99.90;;;;;;2098037;28;20081;-70
2021/11/18 04:29:34;;;;;;;19.50;11.45;;;6.70;99.90;;;;;;2097491;28;20024;-70
2021/11/18 04:30:45;;;;;;;18.95;11.13;;;6.70;99.90;;;;;;2097398;28;20107;-69
2021/11/18 04:32:03;;;;;;;22.63;11.07;;;6.70;99.90;;;;;;2097094;28;20120;-71
2021/11/18 04:33:04;;;;;;;18.25;11.15;;;6.70;99.90;;;;;;2089184;28;20025;-69
2021/11/18 04:34:06;;;;;;;17.55;11.10;;;6.70;99.90;;;;;;2089082;28;20397;-70
2021/11/18 04:35:08;;;;;;;18.33;11.00;;;6.70;99.90;;;;;;2089314;28;20075;-71
2021/11/18 04:36:11;;;;;;;17.80;11.57;;;6.60;99.90;;;;;;2088708;28;20025;-69
2021/11/18 04:37:14;;;;;;;18.55;11.23;;;6.60;99.90;;;;;;2088885;28;20029;-71
2021/11/18 04:38:17;;;;;;;20.08;11.65;;;6.60;99.90;;;;;;2089148;28;20043;-71
2021/11/18 04:39:19;;;;;;;20.55;11.82;;;6.60;99.90;;;;;;2097384;28;20016;-71
2021/11/18 04:40:20;;;;;;;19.27;11.18;;;6.60;99.90;;;;;;2097372;28;20086;-70
2021/11/18 04:41:23;;;;;;;17.38;10.80;;;6.60;99.90;;;;;;2088744;28;20468;-71
2021/11/18 04:42:28;;;;;;;19.48;10.95;;;6.50;99.90;;;;;;2097323;28;20147;-70
2021/11/18 04:43:45;;;;;;;17.63;11.20;;;6.60;99.90;;;;;;2091428;28;20032;-71
2021/11/18 04:44:47;;;;;;;19.02;10.90;;;6.60;99.90;;;;;;2089208;28;20514;-71
2021/11/18 04:45:48;;;;;;;20.33;11.15;;;6.50;99.90;;;;;;2088580;28;20057;-71
2021/11/18 04:46:49;;;;;;;19.92;10.80;;;6.50;99.90;;;;;;2080727;28;20136;-70
2021/11/18 04:47:50;;;;;;;21.40;11.52;;;6.50;99.90;;;;;;2088898;28;20051;-71
2021/11/18 04:48:52;;;;;;;19.27;11.63;;;6.50;99.90;;;;;;2095953;28;20498;-71
2021/11/18 04:49:53;;;;;;;18.25;10.75;;;6.50;99.90;;;;;;2097337;28;20150;-70
2021/11/18 04:50:54;;;;;;;19.23;10.95;;;6.50;99.90;;;;;;2097128;28;20147;-69
2021/11/18 04:51:54;;;;;;;36.58;13.10;;;6.50;99.90;;;;;;2096998;28;20047;-70
2021/11/18 04:52:55;;;;;;;23.90;11.98;;;6.50;99.90;;;;;;2097118;28;20020;-70
2021/11/18 04:53:58;;;;;;;18.50;10.90;;;6.50;99.90;;;;;;2088987;28;20079;-70
2021/11/18 04:55:02;;;;;;;19.33;10.70;;;6.50;99.90;;;;;;2097147;28;20024;-70
2021/11/18 04:56:06;;;;;;;19.52;10.75;;;6.50;99.90;;;;;;2088529;28;20040;-69
2021/11/18 04:57:16;;;;;;;23.17;11.38;;;6.50;99.90;;;;;;2090210;28;20029;-69
2021/11/18 04:58:19;;;;;;;21.17;10.77;;;6.40;99.90;;;;;;2089155;28;20041;-70
2021/11/18 04:59:22;;;;;;;20.10;10.82;;;6.40;99.90;;;;;;2088761;28;20067;-70
2021/11/18 05:00:27;;;;;;;19.88;11.65;;;6.40;99.90;;;;;;2080916;28;20543;-70
2021/11/18 05:01:30;;;;;;;20.13;11.25;;;6.40;99.90;;;;;;2089206;28;20032;-70
2021/11/18 05:02:31;;;;;;;16.73;11.05;;;6.40;99.90;;;;;;2097197;28;20063;-71
2021/11/18 05:03:33;;;;;;;19.33;11.20;;;6.40;99.90;;;;;;2089025;28;20068;-70
2021/11/18 05:04:34;;;;;;;17.02;10.73;;;6.40;99.90;;;;;;2097178;28;20162;-70
2021/11/18 05:05:35;;;;;;;17.63;10.32;;;6.40;99.90;;;;;;2097207;28;20484;-70
2021/11/18 05:06:36;;;;;;;18.55;11.75;;;6.30;99.90;;;;;;2088424;28;20048;-70
2021/11/18 05:07:37;;;;;;;19.33;11.13;;;6.40;99.90;;;;;;2088862;28;20068;-69
2021/11/18 05:08:38;;;;;;;20.73;11.43;;;6.40;99.90;;;;;;2096898;28;20112;-68
2021/11/18 05:09:41;;;;;;;16.73;10.77;;;6.40;99.90;;;;;;2089108;28;20508;-68
2021/11/18 05:10:45;;;;;;;17.02;11.32;;;6.30;99.90;;;;;;2088816;28;20116;-69
2021/11/18 05:11:50;;;;;;;18.75;10.70;;;6.30;99.90;;;;;;2089304;28;20609;-68
2021/11/18 05:12:53;;;;;;;18.02;11.00;;;6.30;99.90;;;;;;2097229;28;20527;-69
2021/11/18 05:13:56;;;;;;;16.55;10.75;;;6.30;99.90;;;;;;2089172;28;20071;-70
2021/11/18 05:15:00;;;;;;;19.00;11.15;;;6.20;99.90;;;;;;2097158;28;20488;-69
2021/11/18 05:16:03;;;;;;;20.92;11.43;;;6.20;99.90;;;;;;2096681;28;20138;-70
2021/11/18 05:17:05;;;;;;;17.52;11.18;;;6.30;99.90;;;;;;2089418;28;20112;-70
2021/11/18 05:18:09;;;;;;;18.25;11.23;;;6.20;99.90;;;;;;2089260;28;20029;-71
2021/11/18 05:19:11;;;;;;;21.60;11.85;;;6.20;99.90;;;;;;2089127;28;20021;-71
2021/11/18 05:20:14;;;;;;;19.45;11.90;;;6.20;99.90;;;;;;2088921;28;20017;-70
2021/11/18 05:21:22;;;;;;;19.88;11.10;;;6.20;99.90;;;;;;2097015;28;20087;-70
2021/11/18 05:22:23;;;;;;;19.00;11.52;;;6.20;99.90;;;;;;2088841;28;20040;-70
2021/11/18 05:23:25;;;;;;;18.75;11.57;;;6.20;99.90;;;;;;2088909;28;20112;-70
2021/11/18 05:24:33;;;;;;;21.00;11.65;;;6.20;99.90;;;;;;2096989;28;20025;-70
2021/11/18 05:25:34;;;;;;;19.98;11.40;;;6.20;99.90;;;;;;2088780;28;20037;-70
2021/11/18 05:26:36;;;;;;;20.17;11.73;;;6.20;99.90;;;;;;2096268;28;20025;-70
2021/11/18 05:27:37;;;;;;;19.48;10.70;;;6.10;99.90;;;;;;2088816;28;20050;-70
2021/11/18 05:28:39;;;;;;;15.38;10.07;;;6.10;99.90;;;;;;2096851;28;20028;-70